sensor_id;sensor_type;location;lat;lon;timestamp;P1;durP1;ratioP1;P2;durP2;ratioP2
60979;SDS011;46851;49.160;8.980;2024-03-02T00:01:32;31.02;;;16.67;;
60979;SDS011;46851;49.160;8.980;2024-03-02T00:03:58;34.78;;;17.42;;
60979;SDS011;46851;49.160;8.980;2024-03-02T00:06:24;36.10;;;17.83;;
60979;SDS011;46851;49.160;8.980;2024-03-02T00:08:50;35.58;;;18.48;;
60979;SDS011;46851;49.160;8.980;2024-03-02T00:11:17;34.67;;;16.90;;
60979;SDS011;46851;49.160;8.980;2024-03-02T00:13:44;33.78;;;17.42;;
60979;SDS011;46851;49.160;8.980;2024-03-02T00:16:12;28.90;;;15.88;;
60979;SDS011;46851;49.160;8.980;2024-03-02T00:18:38;27.83;;;16.08;;
60979;SDS011;46851;49.160;8.980;2024-03-02T00:21:05;31.05;;;14.80;;
60979;SDS011;46851;49.160;8.980;2024-03-02T00:23:34;27.27;;;14.52;;
60979;SDS011;46851;49.160;8.980;2024-03-02T00:26:00;26.98;;;14.10;;
60979;SDS011;46851;49.160;8.980;2024-03-02T00:28:27;23.48;;;13.60;;
60979;SDS011;46851;49.160;8.980;2024-03-02T00:33:32;21.38;;;13.00;;
60979;SDS011;46851;49.160;8.980;2024-03-02T00:35:59;21.40;;;11.45;;
60979;SDS011;46851;49.160;8.980;2024-03-02T00:38:26;20.15;;;11.32;;
60979;SDS011;46851;49.160;8.980;2024-03-02T00:40:52;21.45;;;12.10;;
60979;SDS011;46851;49.160;8.980;2024-03-02T00:46:03;25.27;;;13.82;;
60979;SDS011;46851;49.160;8.980;2024-03-02T00:48:29;24.55;;;14.05;;
60979;SDS011;46851;49.160;8.980;2024-03-02T00:50:56;22.73;;;12.90;;
60979;SDS011;46851;49.160;8.980;2024-03-02T00:53:23;21.42;;;12.25;;
60979;SDS011;46851;49.160;8.980;2024-03-02T00:55:50;19.80;;;11.98;;
60979;SDS011;46851;49.160;8.980;2024-03-02T00:58:16;23.45;;;14.00;;
60979;SDS011;46851;49.160;8.980;2024-03-02T01:00:42;23.17;;;13.10;;
60979;SDS011;46851;49.160;8.980;2024-03-02T01:03:08;22.88;;;13.85;;
60979;SDS011;46851;49.160;8.980;2024-03-02T01:05:36;23.23;;;13.60;;
60979;SDS011;46851;49.160;8.980;2024-03-02T01:08:02;26.98;;;14.18;;
60979;SDS011;46851;49.160;8.980;2024-03-02T01:10:28;26.70;;;14.32;;
60979;SDS011;46851;49.160;8.980;2024-03-02T01:12:54;28.98;;;15.27;;
60979;SDS011;46851;49.160;8.980;2024-03-02T01:15:20;26.38;;;15.82;;
60979;SDS011;46851;49.160;8.980;2024-03-02T01:17:47;26.15;;;14.98;;
60979;SDS011;46851;49.160;8.980;2024-03-02T01:20:13;28.05;;;15.10;;
60979;SDS011;46851;49.160;8.980;2024-03-02T01:22:38;24.08;;;14.57;;
60979;SDS011;46851;49.160;8.980;2024-03-02T01:25:05;30.13;;;16.98;;
60979;SDS011;46851;49.160;8.980;2024-03-02T01:27:31;29.75;;;16.02;;
60979;SDS011;46851;49.160;8.980;2024-03-02T01:29:57;28.02;;;14.98;;
60979;SDS011;46851;49.160;8.980;2024-03-02T01:32:25;30.00;;;15.90;;
60979;SDS011;46851;49.160;8.980;2024-03-02T01:34:52;31.00;;;16.48;;
60979;SDS011;46851;49.160;8.980;2024-03-02T01:37:18;27.98;;;15.68;;
60979;SDS011;46851;49.160;8.980;2024-03-02T01:39:44;26.20;;;15.45;;
60979;SDS011;46851;49.160;8.980;2024-03-02T01:42:10;24.23;;;14.57;;
60979;SDS011;46851;49.160;8.980;2024-03-02T01:44:36;32.72;;;16.60;;
60979;SDS011;46851;49.160;8.980;2024-03-02T01:47:02;33.17;;;15.93;;
60979;SDS011;46851;49.160;8.980;2024-03-02T01:49:28;34.55;;;17.73;;
60979;SDS011;46851;49.160;8.980;2024-03-02T01:51:55;29.85;;;16.50;;
60979;SDS011;46851;49.160;8.980;2024-03-02T01:54:22;28.95;;;16.27;;
60979;SDS011;46851;49.160;8.980;2024-03-02T01:56:48;30.98;;;16.58;;
60979;SDS011;46851;49.160;8.980;2024-03-02T01:59:14;31.17;;;15.93;;
60979;SDS011;46851;49.160;8.980;2024-03-02T02:01:40;30.52;;;17.20;;
60979;SDS011;46851;49.160;8.980;2024-03-02T02:04:06;35.60;;;17.25;;
60979;SDS011;46851;49.160;8.980;2024-03-02T02:06:32;29.08;;;16.38;;
60979;SDS011;46851;49.160;8.980;2024-03-02T02:08:59;26.35;;;15.45;;
60979;SDS011;46851;49.160;8.980;2024-03-02T02:11:25;28.95;;;15.80;;
60979;SDS011;46851;49.160;8.980;2024-03-02T02:13:51;29.25;;;16.88;;
60979;SDS011;46851;49.160;8.980;2024-03-02T02:16:17;32.60;;;17.20;;
60979;SDS011;46851;49.160;8.980;2024-03-02T02:18:43;30.15;;;16.20;;
60979;SDS011;46851;49.160;8.980;2024-03-02T02:21:09;28.90;;;16.67;;
60979;SDS011;46851;49.160;8.980;2024-03-02T02:23:35;36.33;;;18.05;;
60979;SDS011;46851;49.160;8.980;2024-03-02T02:26:01;32.00;;;16.83;;
60979;SDS011;46851;49.160;8.980;2024-03-02T02:28:27;28.67;;;15.82;;
60979;SDS011;46851;49.160;8.980;2024-03-02T02:30:54;31.65;;;16.58;;
60979;SDS011;46851;49.160;8.980;2024-03-02T02:33:27;34.47;;;17.48;;
60979;SDS011;46851;49.160;8.980;2024-03-02T02:35:53;30.38;;;15.57;;
60979;SDS011;46851;49.160;8.980;2024-03-02T02:38:20;31.10;;;16.15;;
60979;SDS011;46851;49.160;8.980;2024-03-02T02:40:46;28.38;;;16.10;;
60979;SDS011;46851;49.160;8.980;2024-03-02T02:43:12;29.38;;;15.65;;
60979;SDS011;46851;49.160;8.980;2024-03-02T02:45:39;25.60;;;14.63;;
60979;SDS011;46851;49.160;8.980;2024-03-02T02:48:05;26.42;;;15.70;;
60979;SDS011;46851;49.160;8.980;2024-03-02T02:50:31;31.00;;;15.32;;
60979;SDS011;46851;49.160;8.980;2024-03-02T02:52:57;25.63;;;15.20;;
60979;SDS011;46851;49.160;8.980;2024-03-02T02:55:23;32.63;;;15.60;;
60979;SDS011;46851;49.160;8.980;2024-03-02T02:57:49;30.35;;;15.93;;
60979;SDS011;46851;49.160;8.980;2024-03-02T03:00:15;25.20;;;14.35;;
60979;SDS011;46851;49.160;8.980;2024-03-02T03:02:44;24.52;;;14.38;;
60979;SDS011;46851;49.160;8.980;2024-03-02T03:05:12;30.65;;;14.60;;
60979;SDS011;46851;49.160;8.980;2024-03-02T03:07:39;28.83;;;14.65;;
60979;SDS011;46851;49.160;8.980;2024-03-02T03:10:05;26.48;;;13.25;;
60979;SDS011;46851;49.160;8.980;2024-03-02T03:12:32;27.63;;;14.63;;
60979;SDS011;46851;49.160;8.980;2024-03-02T03:14:58;25.60;;;14.13;;
60979;SDS011;46851;49.160;8.980;2024-03-02T03:17:25;25.75;;;14.45;;
60979;SDS011;46851;49.160;8.980;2024-03-02T03:19:51;25.65;;;13.45;;
60979;SDS011;46851;49.160;8.980;2024-03-02T03:22:17;28.55;;;14.63;;
60979;SDS011;46851;49.160;8.980;2024-03-02T03:24:43;29.35;;;14.57;;
60979;SDS011;46851;49.160;8.980;2024-03-02T03:27:09;29.73;;;14.93;;
60979;SDS011;46851;49.160;8.980;2024-03-02T03:29:36;34.58;;;16.20;;
60979;SDS011;46851;49.160;8.980;2024-03-02T03:32:02;29.60;;;15.95;;
60979;SDS011;46851;49.160;8.980;2024-03-02T03:34:32;33.47;;;16.00;;
60979;SDS011;46851;49.160;8.980;2024-03-02T03:36:58;34.10;;;17.40;;
60979;SDS011;46851;49.160;8.980;2024-03-02T03:39:23;29.95;;;16.90;;
60979;SDS011;46851;49.160;8.980;2024-03-02T03:41:50;30.63;;;15.65;;
60979;SDS011;46851;49.160;8.980;2024-03-02T03:44:16;32.08;;;16.70;;
60979;SDS011;46851;49.160;8.980;2024-03-02T03:46:42;31.58;;;16.23;;
60979;SDS011;46851;49.160;8.980;2024-03-02T03:49:08;33.75;;;16.58;;
60979;SDS011;46851;49.160;8.980;2024-03-02T03:51:34;31.00;;;15.52;;
60979;SDS011;46851;49.160;8.980;2024-03-02T03:54:00;31.75;;;16.20;;
60979;SDS011;46851;49.160;8.980;2024-03-02T03:59:20;30.45;;;15.90;;
60979;SDS011;46851;49.160;8.980;2024-03-02T04:01:46;31.23;;;15.15;;
60979;SDS011;46851;49.160;8.980;2024-03-02T04:04:12;32.72;;;15.95;;
60979;SDS011;46851;49.160;8.980;2024-03-02T04:06:38;30.25;;;14.75;;
60979;SDS011;46851;49.160;8.980;2024-03-02T04:09:04;31.80;;;16.13;;
60979;SDS011;46851;49.160;8.980;2024-03-02T04:11:30;36.22;;;16.02;;
60979;SDS011;46851;49.160;8.980;2024-03-02T04:13:56;32.92;;;16.73;;
60979;SDS011;46851;49.160;8.980;2024-03-02T04:16:22;29.65;;;15.45;;
60979;SDS011;46851;49.160;8.980;2024-03-02T04:18:48;31.52;;;15.35;;
60979;SDS011;46851;49.160;8.980;2024-03-02T04:21:14;35.22;;;16.80;;
60979;SDS011;46851;49.160;8.980;2024-03-02T04:23:40;31.13;;;15.85;;
60979;SDS011;46851;49.160;8.980;2024-03-02T04:26:06;33.40;;;16.55;;
60979;SDS011;46851;49.160;8.980;2024-03-02T04:28:32;36.38;;;16.73;;
60979;SDS011;46851;49.160;8.980;2024-03-02T04:30:58;32.42;;;16.02;;
60979;SDS011;46851;49.160;8.980;2024-03-02T04:33:24;33.78;;;16.35;;
60979;SDS011;46851;49.160;8.980;2024-03-02T04:35:50;32.63;;;16.38;;
60979;SDS011;46851;49.160;8.980;2024-03-02T04:38:16;33.85;;;16.67;;
60979;SDS011;46851;49.160;8.980;2024-03-02T04:40:41;32.63;;;16.58;;
60979;SDS011;46851;49.160;8.980;2024-03-02T04:43:07;35.28;;;16.23;;
60979;SDS011;46851;49.160;8.980;2024-03-02T04:45:34;35.83;;;17.05;;
60979;SDS011;46851;49.160;8.980;2024-03-02T04:48:00;32.58;;;15.57;;
60979;SDS011;46851;49.160;8.980;2024-03-02T04:50:26;35.50;;;16.95;;
60979;SDS011;46851;49.160;8.980;2024-03-02T04:52:52;33.35;;;16.20;;
60979;SDS011;46851;49.160;8.980;2024-03-02T04:55:18;35.42;;;16.73;;
60979;SDS011;46851;49.160;8.980;2024-03-02T04:57:44;30.60;;;15.98;;
60979;SDS011;46851;49.160;8.980;2024-03-02T05:00:11;33.15;;;16.83;;
60979;SDS011;46851;49.160;8.980;2024-03-02T05:02:37;30.73;;;15.70;;
60979;SDS011;46851;49.160;8.980;2024-03-02T05:05:03;33.20;;;15.40;;
60979;SDS011;46851;49.160;8.980;2024-03-02T05:07:29;35.67;;;16.45;;
60979;SDS011;46851;49.160;8.980;2024-03-02T05:09:55;34.10;;;16.73;;
60979;SDS011;46851;49.160;8.980;2024-03-02T05:12:21;32.83;;;15.95;;
60979;SDS011;46851;49.160;8.980;2024-03-02T05:15:06;32.40;;;15.77;;
60979;SDS011;46851;49.160;8.980;2024-03-02T05:17:32;29.65;;;15.98;;
60979;SDS011;46851;49.160;8.980;2024-03-02T05:19:58;33.65;;;16.58;;
60979;SDS011;46851;49.160;8.980;2024-03-02T05:22:24;30.08;;;15.55;;
60979;SDS011;46851;49.160;8.980;2024-03-02T05:24:50;34.70;;;16.25;;
60979;SDS011;46851;49.160;8.980;2024-03-02T05:27:16;37.22;;;16.15;;
60979;SDS011;46851;49.160;8.980;2024-03-02T05:29:42;29.50;;;16.60;;
60979;SDS011;46851;49.160;8.980;2024-03-02T05:32:08;33.50;;;15.55;;
60979;SDS011;46851;49.160;8.980;2024-03-02T05:34:34;28.33;;;15.00;;
60979;SDS011;46851;49.160;8.980;2024-03-02T05:37:01;31.73;;;15.45;;
60979;SDS011;46851;49.160;8.980;2024-03-02T05:39:27;31.08;;;14.65;;
60979;SDS011;46851;49.160;8.980;2024-03-02T05:41:53;30.40;;;14.95;;
60979;SDS011;46851;49.160;8.980;2024-03-02T05:44:19;30.30;;;14.68;;
60979;SDS011;46851;49.160;8.980;2024-03-02T05:46:45;27.80;;;14.52;;
60979;SDS011;46851;49.160;8.980;2024-03-02T05:49:11;28.35;;;14.40;;
60979;SDS011;46851;49.160;8.980;2024-03-02T05:51:37;26.73;;;13.52;;
60979;SDS011;46851;49.160;8.980;2024-03-02T05:54:03;28.75;;;14.98;;
60979;SDS011;46851;49.160;8.980;2024-03-02T05:56:29;28.80;;;15.18;;
60979;SDS011;46851;49.160;8.980;2024-03-02T05:58:55;25.33;;;13.32;;
60979;SDS011;46851;49.160;8.980;2024-03-02T06:01:44;27.27;;;13.82;;
60979;SDS011;46851;49.160;8.980;2024-03-02T06:04:17;29.42;;;14.63;;
60979;SDS011;46851;49.160;8.980;2024-03-02T06:06:43;27.58;;;14.32;;
60979;SDS011;46851;49.160;8.980;2024-03-02T06:09:09;27.98;;;13.50;;
60979;SDS011;46851;49.160;8.980;2024-03-02T06:11:39;27.08;;;15.15;;
60979;SDS011;46851;49.160;8.980;2024-03-02T06:14:05;30.38;;;15.35;;
60979;SDS011;46851;49.160;8.980;2024-03-02T06:16:32;31.25;;;15.40;;
60979;SDS011;46851;49.160;8.980;2024-03-02T06:18:58;32.70;;;15.05;;
60979;SDS011;46851;49.160;8.980;2024-03-02T06:21:24;29.80;;;15.25;;
60979;SDS011;46851;49.160;8.980;2024-03-02T06:23:50;28.85;;;15.05;;
60979;SDS011;46851;49.160;8.980;2024-03-02T06:26:17;32.70;;;15.63;;
60979;SDS011;46851;49.160;8.980;2024-03-02T06:28:43;29.73;;;14.13;;
60979;SDS011;46851;49.160;8.980;2024-03-02T06:31:09;28.35;;;14.60;;
60979;SDS011;46851;49.160;8.980;2024-03-02T06:33:35;32.67;;;15.30;;
60979;SDS011;46851;49.160;8.980;2024-03-02T06:36:02;29.33;;;15.23;;
60979;SDS011;46851;49.160;8.980;2024-03-02T06:38:28;27.10;;;13.73;;
60979;SDS011;46851;49.160;8.980;2024-03-02T06:40:54;31.70;;;14.13;;
60979;SDS011;46851;49.160;8.980;2024-03-02T06:43:20;27.58;;;13.43;;
60979;SDS011;46851;49.160;8.980;2024-03-02T06:45:50;26.23;;;13.57;;
60979;SDS011;46851;49.160;8.980;2024-03-02T06:48:16;26.45;;;13.55;;
60979;SDS011;46851;49.160;8.980;2024-03-02T06:50:45;26.17;;;13.38;;
60979;SDS011;46851;49.160;8.980;2024-03-02T06:53:12;27.85;;;14.02;;
60979;SDS011;46851;49.160;8.980;2024-03-02T06:55:38;26.30;;;12.77;;
60979;SDS011;46851;49.160;8.980;2024-03-02T06:58:04;26.58;;;13.45;;
60979;SDS011;46851;49.160;8.980;2024-03-02T07:00:30;26.20;;;14.68;;
60979;SDS011;46851;49.160;8.980;2024-03-02T07:02:56;28.55;;;13.32;;
60979;SDS011;46851;49.160;8.980;2024-03-02T07:05:22;24.33;;;13.00;;
60979;SDS011;46851;49.160;8.980;2024-03-02T07:07:48;25.90;;;13.68;;
60979;SDS011;46851;49.160;8.980;2024-03-02T07:10:14;26.08;;;13.35;;
60979;SDS011;46851;49.160;8.980;2024-03-02T07:12:40;24.90;;;12.48;;
60979;SDS011;46851;49.160;8.980;2024-03-02T07:15:06;24.80;;;13.07;;
60979;SDS011;46851;49.160;8.980;2024-03-02T07:17:32;32.85;;;14.52;;
60979;SDS011;46851;49.160;8.980;2024-03-02T07:19:58;29.05;;;12.93;;
60979;SDS011;46851;49.160;8.980;2024-03-02T07:22:24;25.40;;;12.77;;
60979;SDS011;46851;49.160;8.980;2024-03-02T07:24:50;21.70;;;12.18;;
60979;SDS011;46851;49.160;8.980;2024-03-02T07:27:16;26.50;;;12.02;;
60979;SDS011;46851;49.160;8.980;2024-03-02T07:29:43;26.77;;;12.25;;
60979;SDS011;46851;49.160;8.980;2024-03-02T07:32:10;20.90;;;12.05;;
60979;SDS011;46851;49.160;8.980;2024-03-02T07:34:36;22.10;;;11.48;;
60979;SDS011;46851;49.160;8.980;2024-03-02T07:37:04;20.20;;;10.70;;
60979;SDS011;46851;49.160;8.980;2024-03-02T07:39:30;20.92;;;10.95;;
60979;SDS011;46851;49.160;8.980;2024-03-02T07:41:57;20.15;;;10.98;;
60979;SDS011;46851;49.160;8.980;2024-03-02T07:44:23;19.95;;;9.93;;
60979;SDS011;46851;49.160;8.980;2024-03-02T07:46:49;21.15;;;11.25;;
60979;SDS011;46851;49.160;8.980;2024-03-02T07:49:15;20.08;;;11.00;;
60979;SDS011;46851;49.160;8.980;2024-03-02T07:51:41;20.38;;;11.38;;
60979;SDS011;46851;49.160;8.980;2024-03-02T07:54:07;18.77;;;10.75;;
60979;SDS011;46851;49.160;8.980;2024-03-02T07:56:33;19.13;;;10.70;;
60979;SDS011;46851;49.160;8.980;2024-03-02T07:58:59;20.00;;;10.95;;
60979;SDS011;46851;49.160;8.980;2024-03-02T08:01:35;17.40;;;9.68;;
60979;SDS011;46851;49.160;8.980;2024-03-02T08:04:01;20.40;;;10.48;;
60979;SDS011;46851;49.160;8.980;2024-03-02T08:06:29;16.13;;;10.23;;
60979;SDS011;46851;49.160;8.980;2024-03-02T08:08:58;21.88;;;11.43;;
60979;SDS011;46851;49.160;8.980;2024-03-02T08:11:24;16.65;;;10.48;;
60979;SDS011;46851;49.160;8.980;2024-03-02T08:13:50;17.15;;;10.18;;
60979;SDS011;46851;49.160;8.980;2024-03-02T08:16:17;17.35;;;9.90;;
60979;SDS011;46851;49.160;8.980;2024-03-02T08:18:49;17.37;;;9.43;;
60979;SDS011;46851;49.160;8.980;2024-03-02T08:21:15;15.90;;;9.40;;
60979;SDS011;46851;49.160;8.980;2024-03-02T08:23:42;13.30;;;8.10;;
60979;SDS011;46851;49.160;8.980;2024-03-02T08:26:08;14.02;;;8.50;;
60979;SDS011;46851;49.160;8.980;2024-03-02T08:28:35;15.00;;;8.07;;
60979;SDS011;46851;49.160;8.980;2024-03-02T08:31:05;11.93;;;7.03;;
60979;SDS011;46851;49.160;8.980;2024-03-02T08:33:32;12.00;;;7.18;;
60979;SDS011;46851;49.160;8.980;2024-03-02T08:35:58;14.18;;;7.88;;
60979;SDS011;46851;49.160;8.980;2024-03-02T08:38:24;11.27;;;7.25;;
60979;SDS011;46851;49.160;8.980;2024-03-02T08:40:50;12.85;;;7.15;;
60979;SDS011;46851;49.160;8.980;2024-03-02T08:43:16;13.55;;;7.07;;
60979;SDS011;46851;49.160;8.980;2024-03-02T08:45:42;11.77;;;7.22;;
60979;SDS011;46851;49.160;8.980;2024-03-02T08:48:08;11.65;;;7.63;;
60979;SDS011;46851;49.160;8.980;2024-03-02T08:50:35;12.32;;;7.13;;
60979;SDS011;46851;49.160;8.980;2024-03-02T08:53:02;10.38;;;7.38;;
60979;SDS011;46851;49.160;8.980;2024-03-02T08:55:28;10.55;;;7.03;;
60979;SDS011;46851;49.160;8.980;2024-03-02T08:57:54;11.15;;;6.90;;
60979;SDS011;46851;49.160;8.980;2024-03-02T09:00:20;10.15;;;6.80;;
60979;SDS011;46851;49.160;8.980;2024-03-02T09:02:46;10.93;;;6.60;;
60979;SDS011;46851;49.160;8.980;2024-03-02T09:05:12;10.57;;;7.43;;
60979;SDS011;46851;49.160;8.980;2024-03-02T09:07:38;10.32;;;6.72;;
60979;SDS011;46851;49.160;8.980;2024-03-02T09:10:05;9.70;;;6.72;;
60979;SDS011;46851;49.160;8.980;2024-03-02T09:12:31;10.25;;;6.60;;
60979;SDS011;46851;49.160;8.980;2024-03-02T09:14:57;8.88;;;6.00;;
60979;SDS011;46851;49.160;8.980;2024-03-02T09:17:23;9.93;;;7.10;;
60979;SDS011;46851;49.160;8.980;2024-03-02T09:19:49;9.90;;;6.82;;
60979;SDS011;46851;49.160;8.980;2024-03-02T09:22:18;11.17;;;6.37;;
60979;SDS011;46851;49.160;8.980;2024-03-02T09:24:44;8.13;;;6.03;;
60979;SDS011;46851;49.160;8.980;2024-03-02T09:27:11;9.55;;;6.40;;
60979;SDS011;46851;49.160;8.980;2024-03-02T09:29:37;10.02;;;6.85;;
60979;SDS011;46851;49.160;8.980;2024-03-02T09:32:04;9.27;;;6.28;;
60979;SDS011;46851;49.160;8.980;2024-03-02T09:34:31;9.75;;;6.53;;
60979;SDS011;46851;49.160;8.980;2024-03-02T09:36:57;11.82;;;7.05;;
60979;SDS011;46851;49.160;8.980;2024-03-02T09:39:23;8.90;;;6.18;;
60979;SDS011;46851;49.160;8.980;2024-03-02T09:41:50;9.63;;;6.38;;
60979;SDS011;46851;49.160;8.980;2024-03-02T09:44:16;10.48;;;6.25;;
60979;SDS011;46851;49.160;8.980;2024-03-02T09:46:43;8.40;;;6.15;;
60979;SDS011;46851;49.160;8.980;2024-03-02T09:49:12;9.20;;;6.88;;
60979;SDS011;46851;49.160;8.980;2024-03-02T09:51:38;8.43;;;5.85;;
60979;SDS011;46851;49.160;8.980;2024-03-02T09:54:04;9.48;;;6.15;;
60979;SDS011;46851;49.160;8.980;2024-03-02T09:56:30;12.30;;;6.40;;
60979;SDS011;46851;49.160;8.980;2024-03-02T09:58:56;7.97;;;5.60;;
60979;SDS011;46851;49.160;8.980;2024-03-02T10:01:22;8.52;;;5.82;;
60979;SDS011;46851;49.160;8.980;2024-03-02T10:03:48;7.88;;;5.78;;
60979;SDS011;46851;49.160;8.980;2024-03-02T10:06:25;8.40;;;5.78;;
60979;SDS011;46851;49.160;8.980;2024-03-02T10:08:51;8.10;;;5.70;;
60979;SDS011;46851;49.160;8.980;2024-03-02T10:16:37;10.38;;;5.93;;
60979;SDS011;46851;49.160;8.980;2024-03-02T10:19:19;9.07;;;5.70;;
60979;SDS011;46851;49.160;8.980;2024-03-02T10:21:47;8.15;;;5.60;;
60979;SDS011;46851;49.160;8.980;2024-03-02T10:24:14;10.75;;;6.30;;
60979;SDS011;46851;49.160;8.980;2024-03-02T10:26:40;7.15;;;5.35;;
60979;SDS011;46851;49.160;8.980;2024-03-02T10:29:07;7.60;;;5.43;;
60979;SDS011;46851;49.160;8.980;2024-03-02T10:31:39;7.75;;;5.30;;
60979;SDS011;46851;49.160;8.980;2024-03-02T10:34:06;7.65;;;4.72;;
60979;SDS011;46851;49.160;8.980;2024-03-02T10:36:33;9.18;;;4.80;;
60979;SDS011;46851;49.160;8.980;2024-03-02T10:39:01;8.20;;;5.43;;
60979;SDS011;46851;49.160;8.980;2024-03-02T10:41:27;6.30;;;4.82;;
60979;SDS011;46851;49.160;8.980;2024-03-02T10:43:54;7.45;;;5.10;;
60979;SDS011;46851;49.160;8.980;2024-03-02T10:46:25;7.18;;;4.47;;
60979;SDS011;46851;49.160;8.980;2024-03-02T10:48:53;6.80;;;5.03;;
60979;SDS011;46851;49.160;8.980;2024-03-02T10:51:19;5.18;;;4.25;;
60979;SDS011;46851;49.160;8.980;2024-03-02T10:53:45;6.57;;;4.82;;
60979;SDS011;46851;49.160;8.980;2024-03-02T10:56:11;6.13;;;4.50;;
60979;SDS011;46851;49.160;8.980;2024-03-02T10:58:41;6.22;;;4.38;;
60979;SDS011;46851;49.160;8.980;2024-03-02T11:01:07;6.93;;;4.72;;
60979;SDS011;46851;49.160;8.980;2024-03-02T11:03:37;7.38;;;5.72;;
60979;SDS011;46851;49.160;8.980;2024-03-02T11:06:05;8.35;;;5.00;;
60979;SDS011;46851;49.160;8.980;2024-03-02T11:08:33;6.68;;;4.70;;
60979;SDS011;46851;49.160;8.980;2024-03-02T11:11:02;7.60;;;4.72;;
60979;SDS011;46851;49.160;8.980;2024-03-02T11:13:32;7.50;;;4.53;;
60979;SDS011;46851;49.160;8.980;2024-03-02T11:16:17;6.32;;;4.53;;
60979;SDS011;46851;49.160;8.980;2024-03-02T11:18:48;4.93;;;4.03;;
60979;SDS011;46851;49.160;8.980;2024-03-02T11:21:15;8.77;;;4.68;;
60979;SDS011;46851;49.160;8.980;2024-03-02T11:23:41;6.45;;;4.15;;
60979;SDS011;46851;49.160;8.980;2024-03-02T11:26:20;8.90;;;4.47;;
60979;SDS011;46851;49.160;8.980;2024-03-02T11:28:46;5.70;;;4.57;;
60979;SDS011;46851;49.160;8.980;2024-03-02T11:31:12;6.63;;;3.90;;
60979;SDS011;46851;49.160;8.980;2024-03-02T11:33:38;5.72;;;3.83;;
60979;SDS011;46851;49.160;8.980;2024-03-02T11:36:08;6.07;;;3.90;;
60979;SDS011;46851;49.160;8.980;2024-03-02T11:38:34;3.55;;;3.00;;
60979;SDS011;46851;49.160;8.980;2024-03-02T11:41:01;5.03;;;3.97;;
60979;SDS011;46851;49.160;8.980;2024-03-02T11:43:28;5.00;;;3.70;;
60979;SDS011;46851;49.160;8.980;2024-03-02T11:46:00;6.07;;;3.90;;
60979;SDS011;46851;49.160;8.980;2024-03-02T11:48:29;8.18;;;3.75;;
60979;SDS011;46851;49.160;8.980;2024-03-02T11:50:57;5.35;;;3.40;;
60979;SDS011;46851;49.160;8.980;2024-03-02T11:53:24;5.20;;;3.63;;
60979;SDS011;46851;49.160;8.980;2024-03-02T11:55:50;5.63;;;3.53;;
60979;SDS011;46851;49.160;8.980;2024-03-02T11:58:18;3.90;;;3.15;;
60979;SDS011;46851;49.160;8.980;2024-03-02T12:00:52;4.50;;;2.90;;
60979;SDS011;46851;49.160;8.980;2024-03-02T12:03:18;4.85;;;3.15;;
60979;SDS011;46851;49.160;8.980;2024-03-02T12:05:48;4.82;;;2.80;;
60979;SDS011;46851;49.160;8.980;2024-03-02T12:08:14;4.00;;;2.60;;
60979;SDS011;46851;49.160;8.980;2024-03-02T12:10:40;3.85;;;2.70;;
60979;SDS011;46851;49.160;8.980;2024-03-02T12:13:06;4.05;;;2.33;;
60979;SDS011;46851;49.160;8.980;2024-03-02T12:15:35;4.47;;;2.40;;
60979;SDS011;46851;49.160;8.980;2024-03-02T12:18:05;2.85;;;1.98;;
60979;SDS011;46851;49.160;8.980;2024-03-02T12:20:32;2.83;;;1.90;;
60979;SDS011;46851;49.160;8.980;2024-03-02T12:22:59;5.13;;;2.10;;
60979;SDS011;46851;49.160;8.980;2024-03-02T12:25:25;4.30;;;1.60;;
60979;SDS011;46851;49.160;8.980;2024-03-02T12:27:56;2.53;;;1.65;;
60979;SDS011;46851;49.160;8.980;2024-03-02T12:30:22;3.38;;;1.80;;
60979;SDS011;46851;49.160;8.980;2024-03-02T12:32:49;2.13;;;1.60;;
60979;SDS011;46851;49.160;8.980;2024-03-02T12:35:15;3.65;;;1.73;;
60979;SDS011;46851;49.160;8.980;2024-03-02T12:37:44;4.20;;;1.50;;
60979;SDS011;46851;49.160;8.980;2024-03-02T12:40:11;3.20;;;1.30;;
60979;SDS011;46851;49.160;8.980;2024-03-02T12:42:38;2.28;;;1.50;;
60979;SDS011;46851;49.160;8.980;2024-03-02T12:45:04;2.33;;;1.65;;
60979;SDS011;46851;49.160;8.980;2024-03-02T12:47:30;4.07;;;2.70;;
60979;SDS011;46851;49.160;8.980;2024-03-02T12:49:56;3.78;;;2.38;;
60979;SDS011;46851;49.160;8.980;2024-03-02T12:52:22;3.63;;;2.00;;
60979;SDS011;46851;49.160;8.980;2024-03-02T12:54:49;2.60;;;1.60;;
60979;SDS011;46851;49.160;8.980;2024-03-02T12:57:18;2.00;;;1.15;;
60979;SDS011;46851;49.160;8.980;2024-03-02T12:59:47;1.80;;;1.13;;
60979;SDS011;46851;49.160;8.980;2024-03-02T13:02:17;3.00;;;1.95;;
60979;SDS011;46851;49.160;8.980;2024-03-02T13:04:43;2.53;;;1.20;;
60979;SDS011;46851;49.160;8.980;2024-03-02T13:07:10;1.52;;;1.23;;
60979;SDS011;46851;49.160;8.980;2024-03-02T13:09:38;4.18;;;1.35;;
60979;SDS011;46851;49.160;8.980;2024-03-02T13:12:05;1.17;;;0.90;;
60979;SDS011;46851;49.160;8.980;2024-03-02T13:14:35;1.65;;;1.13;;
60979;SDS011;46851;49.160;8.980;2024-03-02T13:19:30;2.08;;;1.30;;
60979;SDS011;46851;49.160;8.980;2024-03-02T13:21:56;1.70;;;1.30;;
60979;SDS011;46851;49.160;8.980;2024-03-02T13:24:22;2.30;;;1.10;;
60979;SDS011;46851;49.160;8.980;2024-03-02T13:26:53;1.40;;;1.00;;
60979;SDS011;46851;49.160;8.980;2024-03-02T13:29:21;1.88;;;0.90;;
60979;SDS011;46851;49.160;8.980;2024-03-02T13:31:47;1.08;;;0.98;;
60979;SDS011;46851;49.160;8.980;2024-03-02T13:34:13;1.45;;;0.70;;
60979;SDS011;46851;49.160;8.980;2024-03-02T13:36:39;1.08;;;0.70;;
60979;SDS011;46851;49.160;8.980;2024-03-02T13:39:05;2.97;;;1.50;;
60979;SDS011;46851;49.160;8.980;2024-03-02T13:41:34;2.58;;;1.55;;
60979;SDS011;46851;49.160;8.980;2024-03-02T13:44:00;0.80;;;0.70;;
60979;SDS011;46851;49.160;8.980;2024-03-02T13:46:26;5.30;;;1.30;;
60979;SDS011;46851;49.160;8.980;2024-03-02T13:48:52;2.10;;;0.90;;
60979;SDS011;46851;49.160;8.980;2024-03-02T13:51:19;2.97;;;1.55;;
60979;SDS011;46851;49.160;8.980;2024-03-02T13:53:45;0.68;;;0.60;;
60979;SDS011;46851;49.160;8.980;2024-03-02T13:56:11;0.60;;;0.50;;
60979;SDS011;46851;49.160;8.980;2024-03-02T13:58:37;3.30;;;1.50;;
60979;SDS011;46851;49.160;8.980;2024-03-02T14:01:04;4.50;;;1.40;;
60979;SDS011;46851;49.160;8.980;2024-03-02T14:03:30;1.00;;;0.80;;
60979;SDS011;46851;49.160;8.980;2024-03-02T14:05:56;1.08;;;0.68;;
60979;SDS011;46851;49.160;8.980;2024-03-02T14:08:23;1.35;;;0.73;;
60979;SDS011;46851;49.160;8.980;2024-03-02T14:10:49;0.80;;;0.70;;
60979;SDS011;46851;49.160;8.980;2024-03-02T14:13:15;3.72;;;1.00;;
60979;SDS011;46851;49.160;8.980;2024-03-02T14:15:41;1.48;;;0.80;;
60979;SDS011;46851;49.160;8.980;2024-03-02T14:18:07;1.00;;;0.80;;
60979;SDS011;46851;49.160;8.980;2024-03-02T14:20:36;2.43;;;0.90;;
60979;SDS011;46851;49.160;8.980;2024-03-02T14:23:02;2.35;;;1.00;;
60979;SDS011;46851;49.160;8.980;2024-03-02T14:25:29;1.33;;;1.08;;
60979;SDS011;46851;49.160;8.980;2024-03-02T14:27:58;2.05;;;1.15;;
60979;SDS011;46851;49.160;8.980;2024-03-02T14:38:07;1.80;;;1.02;;
60979;SDS011;46851;49.160;8.980;2024-03-02T14:40:33;1.13;;;0.90;;
60979;SDS011;46851;49.160;8.980;2024-03-02T14:42:59;5.55;;;0.93;;
60979;SDS011;46851;49.160;8.980;2024-03-02T14:45:25;2.30;;;0.80;;
60979;SDS011;46851;49.160;8.980;2024-03-02T14:47:51;3.67;;;1.00;;
60979;SDS011;46851;49.160;8.980;2024-03-02T14:50:18;1.48;;;0.80;;
60979;SDS011;46851;49.160;8.980;2024-03-02T14:52:44;1.65;;;0.90;;